sensor_id;sensor_type;location;lat;lon;timestamp;P1;durP1;ratioP1;P2;durP2;ratioP2
20725;SDS011;10524;48.132;8.518;2023-04-06T00:00:36;19.75;;;13.27;;
20725;SDS011;10524;48.132;8.518;2023-04-06T00:03:02;19.85;;;14.32;;
20725;SDS011;10524;48.132;8.518;2023-04-06T00:05:28;20.48;;;14.18;;
20725;SDS011;10524;48.132;8.518;2023-04-06T00:07:57;20.33;;;13.27;;
20725;SDS011;10524;48.132;8.518;2023-04-06T00:10:23;18.13;;;12.35;;
20725;SDS011;10524;48.132;8.518;2023-04-06T00:12:49;19.65;;;14.27;;
20725;SDS011;10524;48.132;8.518;2023-04-06T00:15:15;20.38;;;13.57;;
20725;SDS011;10524;48.132;8.518;2023-04-06T00:17:40;18.40;;;13.05;;
20725;SDS011;10524;48.132;8.518;2023-04-06T00:20:06;20.73;;;13.48;;
20725;SDS011;10524;48.132;8.518;2023-04-06T00:22:33;20.98;;;14.77;;
20725;SDS011;10524;48.132;8.518;2023-04-06T00:24:58;19.27;;;13.95;;
20725;SDS011;10524;48.132;8.518;2023-04-06T00:27:24;21.98;;;14.88;;
20725;SDS011;10524;48.132;8.518;2023-04-06T00:29:50;19.95;;;13.73;;
20725;SDS011;10524;48.132;8.518;2023-04-06T00:32:15;21.13;;;13.63;;
20725;SDS011;10524;48.132;8.518;2023-04-06T00:34:41;20.48;;;15.13;;
20725;SDS011;10524;48.132;8.518;2023-04-06T00:37:07;20.58;;;14.15;;
20725;SDS011;10524;48.132;8.518;2023-04-06T00:39:32;22.90;;;15.43;;
20725;SDS011;10524;48.132;8.518;2023-04-06T00:41:58;24.27;;;15.85;;
20725;SDS011;10524;48.132;8.518;2023-04-06T00:44:25;24.52;;;15.80;;
20725;SDS011;10524;48.132;8.518;2023-04-06T00:46:51;20.50;;;14.68;;
20725;SDS011;10524;48.132;8.518;2023-04-06T00:49:18;23.50;;;15.50;;
20725;SDS011;10524;48.132;8.518;2023-04-06T00:51:44;23.05;;;15.18;;
20725;SDS011;10524;48.132;8.518;2023-04-06T00:54:09;21.25;;;14.57;;
20725;SDS011;10524;48.132;8.518;2023-04-06T00:56:35;21.92;;;14.88;;
20725;SDS011;10524;48.132;8.518;2023-04-06T00:59:01;22.05;;;15.90;;
20725;SDS011;10524;48.132;8.518;2023-04-06T01:01:26;21.48;;;14.80;;
20725;SDS011;10524;48.132;8.518;2023-04-06T01:03:53;20.67;;;14.25;;
20725;SDS011;10524;48.132;8.518;2023-04-06T01:06:20;21.58;;;14.68;;
20725;SDS011;10524;48.132;8.518;2023-04-06T01:08:45;19.45;;;14.25;;
20725;SDS011;10524;48.132;8.518;2023-04-06T01:11:11;21.35;;;14.15;;
20725;SDS011;10524;48.132;8.518;2023-04-06T01:13:37;22.05;;;14.70;;
20725;SDS011;10524;48.132;8.518;2023-04-06T01:16:02;18.85;;;13.07;;
20725;SDS011;10524;48.132;8.518;2023-04-06T01:18:28;25.67;;;14.95;;
20725;SDS011;10524;48.132;8.518;2023-04-06T01:20:54;20.67;;;13.63;;
20725;SDS011;10524;48.132;8.518;2023-04-06T01:23:20;17.30;;;12.75;;
20725;SDS011;10524;48.132;8.518;2023-04-06T01:25:46;18.77;;;13.23;;
20725;SDS011;10524;48.132;8.518;2023-04-06T01:28:12;17.60;;;12.65;;
20725;SDS011;10524;48.132;8.518;2023-04-06T01:30:37;19.73;;;14.02;;
20725;SDS011;10524;48.132;8.518;2023-04-06T01:33:03;22.77;;;14.43;;
20725;SDS011;10524;48.132;8.518;2023-04-06T01:35:29;17.85;;;12.95;;
20725;SDS011;10524;48.132;8.518;2023-04-06T01:37:55;21.35;;;14.07;;
20725;SDS011;10524;48.132;8.518;2023-04-06T01:40:21;18.95;;;13.93;;
20725;SDS011;10524;48.132;8.518;2023-04-06T01:42:47;19.42;;;13.93;;
20725;SDS011;10524;48.132;8.518;2023-04-06T01:45:12;22.45;;;15.00;;
20725;SDS011;10524;48.132;8.518;2023-04-06T01:47:38;21.13;;;14.30;;
20725;SDS011;10524;48.132;8.518;2023-04-06T01:50:04;20.90;;;14.32;;
20725;SDS011;10524;48.132;8.518;2023-04-06T01:52:32;22.50;;;14.90;;
20725;SDS011;10524;48.132;8.518;2023-04-06T01:54:58;25.63;;;16.77;;
20725;SDS011;10524;48.132;8.518;2023-04-06T01:57:24;25.33;;;17.30;;
20725;SDS011;10524;48.132;8.518;2023-04-06T01:59:50;26.45;;;17.98;;
20725;SDS011;10524;48.132;8.518;2023-04-06T02:02:16;25.02;;;16.92;;
20725;SDS011;10524;48.132;8.518;2023-04-06T02:04:42;26.10;;;17.83;;
20725;SDS011;10524;48.132;8.518;2023-04-06T02:07:08;27.15;;;17.88;;
20725;SDS011;10524;48.132;8.518;2023-04-06T02:09:33;29.42;;;18.13;;
20725;SDS011;10524;48.132;8.518;2023-04-06T02:11:59;24.90;;;17.55;;
20725;SDS011;10524;48.132;8.518;2023-04-06T02:14:26;23.65;;;16.45;;
20725;SDS011;10524;48.132;8.518;2023-04-06T02:16:52;23.27;;;16.10;;
20725;SDS011;10524;48.132;8.518;2023-04-06T02:19:17;24.80;;;16.02;;
20725;SDS011;10524;48.132;8.518;2023-04-06T02:21:43;24.63;;;16.45;;
20725;SDS011;10524;48.132;8.518;2023-04-06T02:24:08;24.73;;;16.23;;
20725;SDS011;10524;48.132;8.518;2023-04-06T02:26:34;24.83;;;16.10;;
20725;SDS011;10524;48.132;8.518;2023-04-06T02:29:00;24.60;;;16.73;;
20725;SDS011;10524;48.132;8.518;2023-04-06T02:31:27;25.25;;;16.88;;
20725;SDS011;10524;48.132;8.518;2023-04-06T02:33:52;25.90;;;17.65;;
20725;SDS011;10524;48.132;8.518;2023-04-06T02:36:18;25.55;;;16.20;;
20725;SDS011;10524;48.132;8.518;2023-04-06T02:38:44;26.70;;;16.95;;
20725;SDS011;10524;48.132;8.518;2023-04-06T02:41:10;24.15;;;15.73;;
20725;SDS011;10524;48.132;8.518;2023-04-06T02:43:35;26.00;;;16.75;;
20725;SDS011;10524;48.132;8.518;2023-04-06T02:46:01;26.48;;;17.20;;
20725;SDS011;10524;48.132;8.518;2023-04-06T02:48:26;25.85;;;17.98;;
20725;SDS011;10524;48.132;8.518;2023-04-06T02:50:52;27.92;;;17.80;;
20725;SDS011;10524;48.132;8.518;2023-04-06T02:53:18;30.02;;;19.30;;
20725;SDS011;10524;48.132;8.518;2023-04-06T02:55:43;25.73;;;17.40;;
20725;SDS011;10524;48.132;8.518;2023-04-06T02:58:09;29.25;;;18.95;;
20725;SDS011;10524;48.132;8.518;2023-04-06T03:00:35;32.35;;;18.85;;
20725;SDS011;10524;48.132;8.518;2023-04-06T03:03:01;29.63;;;18.38;;
20725;SDS011;10524;48.132;8.518;2023-04-06T03:05:26;27.33;;;17.38;;
20725;SDS011;10524;48.132;8.518;2023-04-06T03:07:52;26.77;;;17.38;;
20725;SDS011;10524;48.132;8.518;2023-04-06T03:10:17;24.58;;;16.50;;
20725;SDS011;10524;48.132;8.518;2023-04-06T03:12:43;21.88;;;15.45;;
20725;SDS011;10524;48.132;8.518;2023-04-06T03:15:09;21.55;;;14.93;;
20725;SDS011;10524;48.132;8.518;2023-04-06T03:17:35;24.58;;;16.63;;
20725;SDS011;10524;48.132;8.518;2023-04-06T03:20:01;23.17;;;15.73;;
20725;SDS011;10524;48.132;8.518;2023-04-06T03:22:26;22.38;;;15.23;;
20725;SDS011;10524;48.132;8.518;2023-04-06T03:24:53;23.70;;;16.35;;
20725;SDS011;10524;48.132;8.518;2023-04-06T03:27:19;24.75;;;17.98;;
20725;SDS011;10524;48.132;8.518;2023-04-06T03:29:44;23.30;;;16.40;;
20725;SDS011;10524;48.132;8.518;2023-04-06T03:32:11;31.35;;;22.75;;
20725;SDS011;10524;48.132;8.518;2023-04-06T03:34:37;25.15;;;18.48;;
20725;SDS011;10524;48.132;8.518;2023-04-06T03:37:03;27.45;;;18.83;;
20725;SDS011;10524;48.132;8.518;2023-04-06T03:39:29;26.63;;;18.55;;
20725;SDS011;10524;48.132;8.518;2023-04-06T03:41:55;28.67;;;20.27;;
20725;SDS011;10524;48.132;8.518;2023-04-06T03:44:21;30.38;;;18.25;;
20725;SDS011;10524;48.132;8.518;2023-04-06T03:46:46;30.25;;;21.13;;
20725;SDS011;10524;48.132;8.518;2023-04-06T03:49:12;30.15;;;20.45;;
20725;SDS011;10524;48.132;8.518;2023-04-06T03:51:37;31.35;;;22.17;;
20725;SDS011;10524;48.132;8.518;2023-04-06T03:54:03;31.52;;;22.83;;
20725;SDS011;10524;48.132;8.518;2023-04-06T03:56:29;30.23;;;21.45;;
20725;SDS011;10524;48.132;8.518;2023-04-06T03:58:54;30.83;;;22.92;;
20725;SDS011;10524;48.132;8.518;2023-04-06T04:01:20;29.48;;;20.58;;
20725;SDS011;10524;48.132;8.518;2023-04-06T04:03:46;33.30;;;21.20;;
20725;SDS011;10524;48.132;8.518;2023-04-06T04:06:11;33.05;;;21.38;;
20725;SDS011;10524;48.132;8.518;2023-04-06T04:08:37;28.00;;;20.17;;
20725;SDS011;10524;48.132;8.518;2023-04-06T04:11:02;25.80;;;17.95;;
20725;SDS011;10524;48.132;8.518;2023-04-06T04:13:28;27.42;;;18.58;;
20725;SDS011;10524;48.132;8.518;2023-04-06T04:15:54;28.45;;;18.55;;
20725;SDS011;10524;48.132;8.518;2023-04-06T04:18:19;25.92;;;18.63;;
20725;SDS011;10524;48.132;8.518;2023-04-06T04:20:45;38.13;;;27.50;;
20725;SDS011;10524;48.132;8.518;2023-04-06T04:23:11;34.65;;;24.00;;
20725;SDS011;10524;48.132;8.518;2023-04-06T04:25:36;29.70;;;20.90;;
20725;SDS011;10524;48.132;8.518;2023-04-06T04:28:02;29.02;;;19.45;;
20725;SDS011;10524;48.132;8.518;2023-04-06T04:30:28;27.92;;;18.05;;
20725;SDS011;10524;48.132;8.518;2023-04-06T04:32:53;32.08;;;23.42;;
20725;SDS011;10524;48.132;8.518;2023-04-06T04:35:19;35.63;;;24.58;;
20725;SDS011;10524;48.132;8.518;2023-04-06T04:37:45;50.15;;;31.15;;
20725;SDS011;10524;48.132;8.518;2023-04-06T04:40:11;47.10;;;30.83;;
20725;SDS011;10524;48.132;8.518;2023-04-06T04:42:36;34.13;;;23.05;;
20725;SDS011;10524;48.132;8.518;2023-04-06T04:45:02;30.83;;;20.35;;
20725;SDS011;10524;48.132;8.518;2023-04-06T04:47:28;29.98;;;19.65;;
20725;SDS011;10524;48.132;8.518;2023-04-06T04:49:53;41.13;;;27.23;;
20725;SDS011;10524;48.132;8.518;2023-04-06T04:52:19;44.63;;;28.85;;
20725;SDS011;10524;48.132;8.518;2023-04-06T04:54:45;44.45;;;27.85;;
20725;SDS011;10524;48.132;8.518;2023-04-06T04:57:12;41.53;;;27.45;;
20725;SDS011;10524;48.132;8.518;2023-04-06T04:59:37;40.33;;;25.67;;
20725;SDS011;10524;48.132;8.518;2023-04-06T05:02:03;33.97;;;22.45;;
20725;SDS011;10524;48.132;8.518;2023-04-06T05:04:29;35.08;;;22.75;;
20725;SDS011;10524;48.132;8.518;2023-04-06T05:07:04;34.28;;;22.60;;
20725;SDS011;10524;48.132;8.518;2023-04-06T05:09:33;32.03;;;22.33;;
20725;SDS011;10524;48.132;8.518;2023-04-06T05:11:59;30.15;;;21.05;;
20725;SDS011;10524;48.132;8.518;2023-04-06T05:14:25;35.65;;;23.25;;
20725;SDS011;10524;48.132;8.518;2023-04-06T05:16:52;35.17;;;22.95;;
20725;SDS011;10524;48.132;8.518;2023-04-06T05:19:18;34.72;;;24.08;;
20725;SDS011;10524;48.132;8.518;2023-04-06T05:21:44;33.80;;;23.40;;
20725;SDS011;10524;48.132;8.518;2023-04-06T05:24:10;29.52;;;20.83;;
20725;SDS011;10524;48.132;8.518;2023-04-06T05:26:35;26.30;;;17.00;;
20725;SDS011;10524;48.132;8.518;2023-04-06T05:29:01;32.70;;;19.38;;
20725;SDS011;10524;48.132;8.518;2023-04-06T05:31:27;34.20;;;21.17;;
20725;SDS011;10524;48.132;8.518;2023-04-06T05:33:53;27.75;;;18.30;;
20725;SDS011;10524;48.132;8.518;2023-04-06T05:36:20;24.38;;;16.08;;
20725;SDS011;10524;48.132;8.518;2023-04-06T05:38:46;36.08;;;20.25;;
20725;SDS011;10524;48.132;8.518;2023-04-06T05:41:11;31.23;;;19.58;;
20725;SDS011;10524;48.132;8.518;2023-04-06T05:43:37;22.10;;;16.20;;
20725;SDS011;10524;48.132;8.518;2023-04-06T05:46:03;18.92;;;12.77;;
20725;SDS011;10524;48.132;8.518;2023-04-06T05:48:29;13.98;;;9.98;;
20725;SDS011;10524;48.132;8.518;2023-04-06T05:50:54;18.48;;;9.95;;
20725;SDS011;10524;48.132;8.518;2023-04-06T05:53:20;11.65;;;9.00;;
20725;SDS011;10524;48.132;8.518;2023-04-06T05:55:46;13.95;;;9.35;;
20725;SDS011;10524;48.132;8.518;2023-04-06T05:58:12;17.13;;;9.13;;
20725;SDS011;10524;48.132;8.518;2023-04-06T06:00:38;12.93;;;9.60;;
20725;SDS011;10524;48.132;8.518;2023-04-06T06:03:03;14.55;;;8.55;;
20725;SDS011;10524;48.132;8.518;2023-04-06T06:05:30;11.90;;;8.63;;
20725;SDS011;10524;48.132;8.518;2023-04-06T06:07:56;11.63;;;8.75;;
20725;SDS011;10524;48.132;8.518;2023-04-06T06:10:22;11.30;;;7.75;;
20725;SDS011;10524;48.132;8.518;2023-04-06T06:12:47;10.40;;;8.02;;
20725;SDS011;10524;48.132;8.518;2023-04-06T06:15:13;12.30;;;7.75;;
20725;SDS011;10524;48.132;8.518;2023-04-06T06:17:39;10.45;;;7.13;;
20725;SDS011;10524;48.132;8.518;2023-04-06T06:20:07;10.60;;;7.50;;
20725;SDS011;10524;48.132;8.518;2023-04-06T06:22:33;11.85;;;7.53;;
20725;SDS011;10524;48.132;8.518;2023-04-06T06:24:59;9.95;;;7.93;;
20725;SDS011;10524;48.132;8.518;2023-04-06T06:27:25;10.93;;;7.63;;
20725;SDS011;10524;48.132;8.518;2023-04-06T06:29:51;11.82;;;8.32;;
20725;SDS011;10524;48.132;8.518;2023-04-06T06:32:17;10.10;;;7.30;;
20725;SDS011;10524;48.132;8.518;2023-04-06T06:34:43;10.52;;;7.55;;
20725;SDS011;10524;48.132;8.518;2023-04-06T06:37:09;10.82;;;6.95;;
20725;SDS011;10524;48.132;8.518;2023-04-06T06:39:34;14.18;;;11.23;;
20725;SDS011;10524;48.132;8.518;2023-04-06T06:42:00;19.58;;;14.32;;
20725;SDS011;10524;48.132;8.518;2023-04-06T06:44:26;19.23;;;14.63;;
20725;SDS011;10524;48.132;8.518;2023-04-06T06:46:52;15.85;;;13.52;;
20725;SDS011;10524;48.132;8.518;2023-04-06T06:49:18;15.82;;;12.18;;
20725;SDS011;10524;48.132;8.518;2023-04-06T06:51:44;9.60;;;7.70;;
20725;SDS011;10524;48.132;8.518;2023-04-06T06:54:11;10.52;;;7.90;;
20725;SDS011;10524;48.132;8.518;2023-04-06T06:56:37;10.20;;;7.00;;
20725;SDS011;10524;48.132;8.518;2023-04-06T06:59:03;7.80;;;6.95;;
20725;SDS011;10524;48.132;8.518;2023-04-06T07:01:29;10.10;;;6.38;;
20725;SDS011;10524;48.132;8.518;2023-04-06T07:03:56;8.20;;;5.82;;
20725;SDS011;10524;48.132;8.518;2023-04-06T07:06:21;7.22;;;5.97;;
20725;SDS011;10524;48.132;8.518;2023-04-06T07:08:47;6.68;;;5.68;;
20725;SDS011;10524;48.132;8.518;2023-04-06T07:11:12;8.85;;;5.78;;
20725;SDS011;10524;48.132;8.518;2023-04-06T07:13:38;9.85;;;5.68;;
20725;SDS011;10524;48.132;8.518;2023-04-06T07:16:04;7.43;;;5.22;;
20725;SDS011;10524;48.132;8.518;2023-04-06T07:18:29;6.55;;;5.00;;
20725;SDS011;10524;48.132;8.518;2023-04-06T07:20:55;7.40;;;4.60;;
20725;SDS011;10524;48.132;8.518;2023-04-06T07:23:21;6.32;;;4.95;;
20725;SDS011;10524;48.132;8.518;2023-04-06T07:25:46;5.70;;;5.00;;
20725;SDS011;10524;48.132;8.518;2023-04-06T07:28:12;8.57;;;5.38;;
20725;SDS011;10524;48.132;8.518;2023-04-06T07:30:38;7.30;;;5.47;;
20725;SDS011;10524;48.132;8.518;2023-04-06T07:33:04;6.07;;;5.20;;
20725;SDS011;10524;48.132;8.518;2023-04-06T07:35:30;8.68;;;5.18;;
20725;SDS011;10524;48.132;8.518;2023-04-06T07:37:56;6.07;;;5.47;;
20725;SDS011;10524;48.132;8.518;2023-04-06T07:40:22;6.32;;;5.03;;
20725;SDS011;10524;48.132;8.518;2023-04-06T07:42:48;6.85;;;5.07;;
20725;SDS011;10524;48.132;8.518;2023-04-06T07:45:14;5.65;;;5.05;;
20725;SDS011;10524;48.132;8.518;2023-04-06T07:47:40;8.98;;;6.15;;
20725;SDS011;10524;48.132;8.518;2023-04-06T07:50:06;6.30;;;5.55;;
20725;SDS011;10524;48.132;8.518;2023-04-06T07:52:32;9.85;;;6.18;;
20725;SDS011;10524;48.132;8.518;2023-04-06T07:54:58;7.50;;;5.03;;
20725;SDS011;10524;48.132;8.518;2023-04-06T07:57:24;8.07;;;6.03;;
20725;SDS011;10524;48.132;8.518;2023-04-06T07:59:50;7.10;;;5.30;;
20725;SDS011;10524;48.132;8.518;2023-04-06T08:02:15;5.63;;;5.03;;
20725;SDS011;10524;48.132;8.518;2023-04-06T08:04:41;6.43;;;5.78;;
20725;SDS011;10524;48.132;8.518;2023-04-06T08:07:07;8.02;;;5.20;;
20725;SDS011;10524;48.132;8.518;2023-04-06T08:09:32;12.32;;;5.22;;
20725;SDS011;10524;48.132;8.518;2023-04-06T08:11:58;6.47;;;5.20;;
20725;SDS011;10524;48.132;8.518;2023-04-06T08:14:24;6.78;;;5.38;;
20725;SDS011;10524;48.132;8.518;2023-04-06T08:16:49;9.35;;;5.90;;
20725;SDS011;10524;48.132;8.518;2023-04-06T08:19:15;5.78;;;5.18;;
20725;SDS011;10524;48.132;8.518;2023-04-06T08:21:42;6.72;;;5.63;;
20725;SDS011;10524;48.132;8.518;2023-04-06T08:24:08;7.55;;;5.03;;
20725;SDS011;10524;48.132;8.518;2023-04-06T08:26:33;6.07;;;5.45;;
20725;SDS011;10524;48.132;8.518;2023-04-06T08:28:59;7.30;;;5.35;;
20725;SDS011;10524;48.132;8.518;2023-04-06T08:31:25;7.43;;;5.55;;
20725;SDS011;10524;48.132;8.518;2023-04-06T08:33:51;6.68;;;5.05;;
20725;SDS011;10524;48.132;8.518;2023-04-06T08:36:17;7.13;;;5.10;;
20725;SDS011;10524;48.132;8.518;2023-04-06T08:38:47;6.82;;;5.70;;
20725;SDS011;10524;48.132;8.518;2023-04-06T08:41:14;6.07;;;5.30;;
20725;SDS011;10524;48.132;8.518;2023-04-06T08:43:46;7.43;;;5.32;;
20725;SDS011;10524;48.132;8.518;2023-04-06T08:46:13;8.95;;;5.78;;
20725;SDS011;10524;48.132;8.518;2023-04-06T08:48:40;7.75;;;5.82;;
20725;SDS011;10524;48.132;8.518;2023-04-06T08:51:07;6.15;;;5.10;;
20725;SDS011;10524;48.132;8.518;2023-04-06T08:53:34;7.93;;;5.50;;
20725;SDS011;10524;48.132;8.518;2023-04-06T08:56:00;5.82;;;5.20;;
20725;SDS011;10524;48.132;8.518;2023-04-06T08:58:28;8.07;;;5.40;;
20725;SDS011;10524;48.132;8.518;2023-04-06T09:00:57;5.70;;;5.10;;
20725;SDS011;10524;48.132;8.518;2023-04-06T09:03:24;8.18;;;5.13;;
20725;SDS011;10524;48.132;8.518;2023-04-06T09:05:51;8.05;;;5.75;;
20725;SDS011;10524;48.132;8.518;2023-04-06T09:08:16;6.95;;;5.22;;
20725;SDS011;10524;48.132;8.518;2023-04-06T09:10:42;6.75;;;5.47;;
20725;SDS011;10524;48.132;8.518;2023-04-06T09:13:08;8.02;;;5.80;;
20725;SDS011;10524;48.132;8.518;2023-04-06T09:15:34;6.20;;;5.28;;
20725;SDS011;10524;48.132;8.518;2023-04-06T09:18:00;7.22;;;5.32;;
20725;SDS011;10524;48.132;8.518;2023-04-06T09:20:26;7.05;;;5.18;;
20725;SDS011;10524;48.132;8.518;2023-04-06T09:22:53;6.40;;;5.30;;
20725;SDS011;10524;48.132;8.518;2023-04-06T09:25:21;6.93;;;5.40;;
20725;SDS011;10524;48.132;8.518;2023-04-06T09:28:03;6.55;;;4.97;;
20725;SDS011;10524;48.132;8.518;2023-04-06T09:30:29;8.93;;;5.78;;
20725;SDS011;10524;48.132;8.518;2023-04-06T09:32:56;5.80;;;4.75;;
20725;SDS011;10524;48.132;8.518;2023-04-06T09:35:22;5.63;;;5.00;;
20725;SDS011;10524;48.132;8.518;2023-04-06T09:37:49;5.88;;;5.13;;
20725;SDS011;10524;48.132;8.518;2023-04-06T09:40:17;7.43;;;5.00;;
20725;SDS011;10524;48.132;8.518;2023-04-06T09:42:47;6.57;;;5.85;;
20725;SDS011;10524;48.132;8.518;2023-04-06T09:45:19;7.28;;;5.60;;
20725;SDS011;10524;48.132;8.518;2023-04-06T09:47:45;5.80;;;4.85;;
20725;SDS011;10524;48.132;8.518;2023-04-06T09:50:12;5.97;;;5.38;;
20725;SDS011;10524;48.132;8.518;2023-04-06T09:52:48;8.05;;;5.70;;
20725;SDS011;10524;48.132;8.518;2023-04-06T09:55:17;7.07;;;5.40;;
20725;SDS011;10524;48.132;8.518;2023-04-06T10:00:32;6.60;;;5.90;;
20725;SDS011;10524;48.132;8.518;2023-04-06T10:03:14;7.57;;;5.90;;
20725;SDS011;10524;48.132;8.518;2023-04-06T10:05:59;6.68;;;5.43;;
20725;SDS011;10524;48.132;8.518;2023-04-06T10:08:29;6.07;;;5.45;;
20725;SDS011;10524;48.132;8.518;2023-04-06T10:10:58;7.30;;;5.65;;
20725;SDS011;10524;48.132;8.518;2023-04-06T10:13:24;8.23;;;4.95;;
20725;SDS011;10524;48.132;8.518;2023-04-06T10:15:50;7.50;;;5.68;;
20725;SDS011;10524;48.132;8.518;2023-04-06T10:18:17;6.38;;;5.70;;
20725;SDS011;10524;48.132;8.518;2023-04-06T10:23:23;7.28;;;5.60;;
20725;SDS011;10524;48.132;8.518;2023-04-06T10:25:55;5.93;;;5.32;;
20725;SDS011;10524;48.132;8.518;2023-04-06T10:28:22;6.47;;;5.47;;
20725;SDS011;10524;48.132;8.518;2023-04-06T10:30:49;8.15;;;5.47;;
20725;SDS011;10524;48.132;8.518;2023-04-06T10:33:21;8.68;;;5.85;;
20725;SDS011;10524;48.132;8.518;2023-04-06T10:35:47;6.68;;;5.32;;
20725;SDS011;10524;48.132;8.518;2023-04-06T10:38:12;8.80;;;5.15;;
20725;SDS011;10524;48.132;8.518;2023-04-06T10:40:39;7.93;;;5.55;;
20725;SDS011;10524;48.132;8.518;2023-04-06T10:43:09;7.03;;;5.63;;
20725;SDS011;10524;48.132;8.518;2023-04-06T10:45:36;6.10;;;5.50;;
20725;SDS011;10524;48.132;8.518;2023-04-06T10:48:15;7.80;;;5.65;;
20725;SDS011;10524;48.132;8.518;2023-04-06T10:50:43;6.38;;;5.35;;
20725;SDS011;10524;48.132;8.518;2023-04-06T10:53:10;6.90;;;5.28;;
20725;SDS011;10524;48.132;8.518;2023-04-06T10:55:37;7.68;;;6.18;;
20725;SDS011;10524;48.132;8.518;2023-04-06T10:58:06;6.63;;;5.22;;
20725;SDS011;10524;48.132;8.518;2023-04-06T11:00:32;6.15;;;4.65;;
20725;SDS011;10524;48.132;8.518;2023-04-06T11:03:01;5.35;;;4.43;;
20725;SDS011;10524;48.132;8.518;2023-04-06T11:05:27;6.45;;;4.53;;
20725;SDS011;10524;48.132;8.518;2023-04-06T11:07:52;5.68;;;4.53;;
20725;SDS011;10524;48.132;8.518;2023-04-06T11:10:21;5.78;;;4.80;;
20725;SDS011;10524;48.132;8.518;2023-04-06T11:12:52;6.95;;;5.70;;
20725;SDS011;10524;48.132;8.518;2023-04-06T11:15:19;8.43;;;5.20;;
20725;SDS011;10524;48.132;8.518;2023-04-06T11:17:45;5.70;;;5.10;;
20725;SDS011;10524;48.132;8.518;2023-04-06T11:20:11;7.45;;;5.38;;
20725;SDS011;10524;48.132;8.518;2023-04-06T11:25:32;5.88;;;5.15;;
20725;SDS011;10524;48.132;8.518;2023-04-06T11:27:58;5.97;;;4.95;;
20725;SDS011;10524;48.132;8.518;2023-04-06T11:30:24;5.90;;;5.07;;
20725;SDS011;10524;48.132;8.518;2023-04-06T11:32:49;7.65;;;5.35;;
20725;SDS011;10524;48.132;8.518;2023-04-06T11:35:22;6.63;;;5.15;;
20725;SDS011;10524;48.132;8.518;2023-04-06T11:37:51;6.40;;;5.38;;
20725;SDS011;10524;48.132;8.518;2023-04-06T11:40:20;6.28;;;5.05;;
20725;SDS011;10524;48.132;8.518;2023-04-06T11:42:54;6.63;;;5.63;;
20725;SDS011;10524;48.132;8.518;2023-04-06T11:45:21;6.28;;;4.90;;
20725;SDS011;10524;48.132;8.518;2023-04-06T11:47:55;5.25;;;4.75;;
20725;SDS011;10524;48.132;8.518;2023-04-06T11:50:22;5.38;;;4.88;;
20725;SDS011;10524;48.132;8.518;2023-04-06T11:52:47;5.95;;;4.80;;
20725;SDS011;10524;48.132;8.518;2023-04-06T11:55:24;6.35;;;4.60;;
20725;SDS011;10524;48.132;8.518;2023-04-06T11:57:50;5.43;;;4.60;;
20725;SDS011;10524;48.132;8.518;2023-04-06T12:00:16;5.25;;;4.40;;
20725;SDS011;10524;48.132;8.518;2023-04-06T12:02:45;5.57;;;4.88;;
20725;SDS011;10524;48.132;8.518;2023-04-06T12:05:12;5.75;;;4.50;;
20725;SDS011;10524;48.132;8.518;2023-04-06T12:07:37;8.10;;;5.25;;
20725;SDS011;10524;48.132;8.518;2023-04-06T12:10:03;7.82;;;5.18;;
20725;SDS011;10524;48.132;8.518;2023-04-06T12:12:30;5.10;;;4.57;;
20725;SDS011;10524;48.132;8.518;2023-04-06T12:14:56;6.47;;;4.93;;
20725;SDS011;10524;48.132;8.518;2023-04-06T12:17:22;6.63;;;4.97;;
20725;SDS011;10524;48.132;8.518;2023-04-06T12:19:48;5.68;;;5.07;;
20725;SDS011;10524;48.132;8.518;2023-04-06T12:22:13;5.80;;;4.82;;
20725;SDS011;10524;48.132;8.518;2023-04-06T12:24:39;5.28;;;4.45;;
20725;SDS011;10524;48.132;8.518;2023-04-06T12:27:05;4.53;;;4.10;;
20725;SDS011;10524;48.132;8.518;2023-04-06T12:29:30;5.97;;;4.68;;
20725;SDS011;10524;48.132;8.518;2023-04-06T12:31:56;6.13;;;5.00;;
20725;SDS011;10524;48.132;8.518;2023-04-06T12:34:21;6.30;;;4.50;;
20725;SDS011;10524;48.132;8.518;2023-04-06T12:36:47;5.72;;;4.85;;
20725;SDS011;10524;48.132;8.518;2023-04-06T12:39:13;5.97;;;5.13;;
20725;SDS011;10524;48.132;8.518;2023-04-06T12:41:38;6.32;;;5.15;;
20725;SDS011;10524;48.132;8.518;2023-04-06T12:44:06;6.15;;;5.13;;
20725;SDS011;10524;48.132;8.518;2023-04-06T12:46:31;6.47;;;5.38;;
20725;SDS011;10524;48.132;8.518;2023-04-06T12:48:57;6.32;;;5.35;;
20725;SDS011;10524;48.132;8.518;2023-04-06T12:51:24;6.95;;;5.35;;
20725;SDS011;10524;48.132;8.518;2023-04-06T12:53:52;6.35;;;5.30;;
20725;SDS011;10524;48.132;8.518;2023-04-06T12:56:18;6.03;;;4.90;;
20725;SDS011;10524;48.132;8.518;2023-04-06T12:58:44;5.60;;;4.70;;
20725;SDS011;10524;48.132;8.518;2023-04-06T13:01:10;6.13;;;4.55;;
20725;SDS011;10524;48.132;8.518;2023-04-06T13:03:39;7.40;;;4.70;;
20725;SDS011;10524;48.132;8.518;2023-04-06T13:06:05;6.80;;;4.40;;
20725;SDS011;10524;48.132;8.518;2023-04-06T13:08:33;6.00;;;5.03;;
20725;SDS011;10524;48.132;8.518;2023-04-06T13:11:00;6.95;;;4.95;;
20725;SDS011;10524;48.132;8.518;2023-04-06T13:13:26;6.22;;;4.93;;
20725;SDS011;10524;48.132;8.518;2023-04-06T13:15:53;6.22;;;4.60;;
20725;SDS011;10524;48.132;8.518;2023-04-06T13:18:20;5.82;;;4.25;;
20725;SDS011;10524;48.132;8.518;2023-04-06T13:20:47;5.75;;;4.15;;
20725;SDS011;10524;48.132;8.518;2023-04-06T13:23:13;5.30;;;4.45;;
20725;SDS011;10524;48.132;8.518;2023-04-06T13:25:39;5.07;;;4.35;;
20725;SDS011;10524;48.132;8.518;2023-04-06T13:28:05;6.50;;;4.75;;
20725;SDS011;10524;48.132;8.518;2023-04-06T13:30:30;5.07;;;4.30;;
20725;SDS011;10524;48.132;8.518;2023-04-06T13:32:56;5.82;;;4.57;;
20725;SDS011;10524;48.132;8.518;2023-04-06T13:35:22;6.38;;;4.30;;
20725;SDS011;10524;48.132;8.518;2023-04-06T13:37:48;5.38;;;4.43;;
20725;SDS011;10524;48.132;8.518;2023-04-06T13:40:16;5.70;;;4.38;;
20725;SDS011;10524;48.132;8.518;2023-04-06T13:42:42;5.63;;;4.80;;
20725;SDS011;10524;48.132;8.518;2023-04-06T13:45:10;5.78;;;4.50;;
20725;SDS011;10524;48.132;8.518;2023-04-06T13:47:35;7.47;;;4.57;;
20725;SDS011;10524;48.132;8.518;2023-04-06T13:50:01;5.85;;;4.40;;
20725;SDS011;10524;48.132;8.518;2023-04-06T13:52:28;6.43;;;5.28;;
20725;SDS011;10524;48.132;8.518;2023-04-06T13:54:54;5.65;;;4.65;;
20725;SDS011;10524;48.132;8.518;2023-04-06T13:57:20;6.47;;;5.30;;
20725;SDS011;10524;48.132;8.518;2023-04-06T13:59:45;5.85;;;4.75;;
20725;SDS011;10524;48.132;8.518;2023-04-06T14:02:11;5.38;;;4.35;;
20725;SDS011;10524;48.132;8.518;2023-04-06T14:04:36;4.68;;;4.00;;
20725;SDS011;10524;48.132;8.518;2023-04-06T14:07:03;6.20;;;4.60;;
20725;SDS011;10524;48.132;8.518;2023-04-06T14:09:32;5.40;;;4.38;;
20725;SDS011;10524;48.132;8.518;2023-04-06T14:11:57;5.28;;;4.15;;
20725;SDS011;10524;48.132;8.518;2023-04-06T14:14:23;6.45;;;4.13;;
20725;SDS011;10524;48.132;8.518;2023-04-06T14:16:49;4.93;;;3.50;;
20725;SDS011;10524;48.132;8.518;2023-04-06T14:19:15;6.15;;;3.95;;
20725;SDS011;10524;48.132;8.518;2023-04-06T14:21:46;4.47;;;3.78;;
20725;SDS011;10524;48.132;8.518;2023-04-06T14:24:12;5.07;;;3.75;;
20725;SDS011;10524;48.132;8.518;2023-04-06T14:26:39;4.63;;;3.72;;
20725;SDS011;10524;48.132;8.518;2023-04-06T14:29:06;4.60;;;3.63;;
20725;SDS011;10524;48.132;8.518;2023-04-06T14:31:33;4.95;;;3.50;;
20725;SDS011;10524;48.132;8.518;2023-04-06T14:34:00;4.72;;;3.13;;
20725;SDS011;10524;48.132;8.518;2023-04-06T14:36:27;5.25;;;3.55;;
20725;SDS011;10524;48.132;8.518;2023-04-06T14:38:54;4.50;;;3.42;;